sensor_id;sensor_type;location;lat;lon;timestamp;P1;durP1;ratioP1;P2;durP2;ratioP2
4198;SDS011;2113;50.946;14.610;2022-08-25T00:01:21;32.50;;;23.88;;
4198;SDS011;2113;50.946;14.610;2022-08-25T00:03:56;32.80;;;23.67;;
4198;SDS011;2113;50.946;14.610;2022-08-25T00:06:25;37.20;;;24.73;;
4198;SDS011;2113;50.946;14.610;2022-08-25T00:08:54;32.90;;;25.30;;
4198;SDS011;2113;50.946;14.610;2022-08-25T00:11:26;29.92;;;22.83;;
4198;SDS011;2113;50.946;14.610;2022-08-25T00:13:59;36.63;;;25.08;;
4198;SDS011;2113;50.946;14.610;2022-08-25T00:16:28;33.47;;;24.50;;
4198;SDS011;2113;50.946;14.610;2022-08-25T00:18:58;29.25;;;21.42;;
4198;SDS011;2113;50.946;14.610;2022-08-25T00:21:28;31.70;;;22.80;;
4198;SDS011;2113;50.946;14.610;2022-08-25T00:24:00;31.63;;;23.70;;
4198;SDS011;2113;50.946;14.610;2022-08-25T00:26:29;27.63;;;20.70;;
4198;SDS011;2113;50.946;14.610;2022-08-25T00:28:57;29.25;;;21.48;;
4198;SDS011;2113;50.946;14.610;2022-08-25T00:31:27;31.70;;;20.88;;
4198;SDS011;2113;50.946;14.610;2022-08-25T00:34:06;27.15;;;20.80;;
4198;SDS011;2113;50.946;14.610;2022-08-25T00:36:37;32.47;;;23.42;;
4198;SDS011;2113;50.946;14.610;2022-08-25T00:39:07;33.60;;;22.98;;
4198;SDS011;2113;50.946;14.610;2022-08-25T00:41:36;29.80;;;21.92;;
4198;SDS011;2113;50.946;14.610;2022-08-25T00:44:08;30.08;;;21.52;;
4198;SDS011;2113;50.946;14.610;2022-08-25T00:46:38;32.35;;;22.98;;
4198;SDS011;2113;50.946;14.610;2022-08-25T00:49:09;32.67;;;22.98;;
4198;SDS011;2113;50.946;14.610;2022-08-25T00:51:52;28.50;;;21.90;;
4198;SDS011;2113;50.946;14.610;2022-08-25T00:54:28;28.05;;;19.20;;
4198;SDS011;2113;50.946;14.610;2022-08-25T00:56:58;30.13;;;23.02;;
4198;SDS011;2113;50.946;14.610;2022-08-25T00:59:28;27.17;;;20.40;;
4198;SDS011;2113;50.946;14.610;2022-08-25T01:01:57;29.00;;;21.40;;
4198;SDS011;2113;50.946;14.610;2022-08-25T01:04:25;27.58;;;21.60;;
4198;SDS011;2113;50.946;14.610;2022-08-25T01:06:54;27.77;;;19.80;;
4198;SDS011;2113;50.946;14.610;2022-08-25T01:09:24;26.80;;;21.23;;
4198;SDS011;2113;50.946;14.610;2022-08-25T01:11:58;27.50;;;20.35;;
4198;SDS011;2113;50.946;14.610;2022-08-25T01:14:26;26.83;;;19.38;;
4198;SDS011;2113;50.946;14.610;2022-08-25T01:16:58;26.38;;;20.20;;
4198;SDS011;2113;50.946;14.610;2022-08-25T01:19:26;30.80;;;20.65;;
4198;SDS011;2113;50.946;14.610;2022-08-25T01:21:59;27.13;;;19.92;;
4198;SDS011;2113;50.946;14.610;2022-08-25T01:24:33;22.25;;;18.27;;
4198;SDS011;2113;50.946;14.610;2022-08-25T01:27:05;24.52;;;19.63;;
4198;SDS011;2113;50.946;14.610;2022-08-25T01:29:35;21.65;;;17.95;;
4198;SDS011;2113;50.946;14.610;2022-08-25T01:32:05;25.90;;;19.20;;
4198;SDS011;2113;50.946;14.610;2022-08-25T01:34:36;24.58;;;17.35;;
4198;SDS011;2113;50.946;14.610;2022-08-25T01:37:08;24.40;;;19.30;;
4198;SDS011;2113;50.946;14.610;2022-08-25T01:39:39;23.92;;;18.38;;
4198;SDS011;2113;50.946;14.610;2022-08-25T01:42:12;23.92;;;18.05;;
4198;SDS011;2113;50.946;14.610;2022-08-25T01:44:46;23.38;;;17.70;;
4198;SDS011;2113;50.946;14.610;2022-08-25T01:47:15;24.08;;;18.63;;
4198;SDS011;2113;50.946;14.610;2022-08-25T01:49:43;22.75;;;18.35;;
4198;SDS011;2113;50.946;14.610;2022-08-25T01:52:15;33.40;;;19.25;;
4198;SDS011;2113;50.946;14.610;2022-08-25T01:54:47;24.13;;;17.23;;
4198;SDS011;2113;50.946;14.610;2022-08-25T01:57:15;22.13;;;17.00;;
4198;SDS011;2113;50.946;14.610;2022-08-25T01:59:44;26.75;;;19.77;;
4198;SDS011;2113;50.946;14.610;2022-08-25T02:02:12;26.48;;;18.10;;
4198;SDS011;2113;50.946;14.610;2022-08-25T02:04:43;24.00;;;18.00;;
4198;SDS011;2113;50.946;14.610;2022-08-25T02:07:11;27.08;;;19.80;;
4198;SDS011;2113;50.946;14.610;2022-08-25T02:09:41;28.45;;;20.17;;
4198;SDS011;2113;50.946;14.610;2022-08-25T02:12:09;25.58;;;18.20;;
4198;SDS011;2113;50.946;14.610;2022-08-25T02:14:38;25.73;;;18.42;;
4198;SDS011;2113;50.946;14.610;2022-08-25T02:17:07;25.08;;;18.38;;
4198;SDS011;2113;50.946;14.610;2022-08-25T02:19:36;25.50;;;20.10;;
4198;SDS011;2113;50.946;14.610;2022-08-25T02:22:04;26.60;;;19.55;;
4198;SDS011;2113;50.946;14.610;2022-08-25T02:24:32;30.08;;;21.75;;
4198;SDS011;2113;50.946;14.610;2022-08-25T02:27:02;34.78;;;23.00;;
4198;SDS011;2113;50.946;14.610;2022-08-25T02:29:30;26.90;;;20.30;;
4198;SDS011;2113;50.946;14.610;2022-08-25T02:31:59;33.17;;;20.25;;
4198;SDS011;2113;50.946;14.610;2022-08-25T02:34:28;32.15;;;20.75;;
4198;SDS011;2113;50.946;14.610;2022-08-25T02:36:56;30.60;;;20.30;;
4198;SDS011;2113;50.946;14.610;2022-08-25T02:39:24;29.15;;;20.63;;
4198;SDS011;2113;50.946;14.610;2022-08-25T02:41:52;31.92;;;21.40;;
4198;SDS011;2113;50.946;14.610;2022-08-25T02:44:21;28.40;;;21.13;;
4198;SDS011;2113;50.946;14.610;2022-08-25T02:46:49;29.13;;;21.10;;
4198;SDS011;2113;50.946;14.610;2022-08-25T02:49:18;27.73;;;19.65;;
4198;SDS011;2113;50.946;14.610;2022-08-25T02:51:45;29.15;;;20.60;;
4198;SDS011;2113;50.946;14.610;2022-08-25T02:54:13;30.20;;;21.25;;
4198;SDS011;2113;50.946;14.610;2022-08-25T02:56:42;33.60;;;22.70;;
4198;SDS011;2113;50.946;14.610;2022-08-25T02:59:10;27.40;;;20.38;;
4198;SDS011;2113;50.946;14.610;2022-08-25T03:01:39;28.08;;;20.58;;
4198;SDS011;2113;50.946;14.610;2022-08-25T03:04:10;28.83;;;20.55;;
4198;SDS011;2113;50.946;14.610;2022-08-25T03:06:38;38.22;;;25.30;;
4198;SDS011;2113;50.946;14.610;2022-08-25T03:09:06;33.47;;;24.83;;
4198;SDS011;2113;50.946;14.610;2022-08-25T03:11:34;35.90;;;22.58;;
4198;SDS011;2113;50.946;14.610;2022-08-25T03:14:03;29.70;;;20.90;;
4198;SDS011;2113;50.946;14.610;2022-08-25T03:16:32;30.33;;;21.65;;
4198;SDS011;2113;50.946;14.610;2022-08-25T03:19:01;35.60;;;23.02;;
4198;SDS011;2113;50.946;14.610;2022-08-25T03:21:31;27.52;;;20.50;;
4198;SDS011;2113;50.946;14.610;2022-08-25T03:23:59;30.40;;;21.92;;
4198;SDS011;2113;50.946;14.610;2022-08-25T03:26:27;32.88;;;21.50;;
4198;SDS011;2113;50.946;14.610;2022-08-25T03:29:12;29.00;;;21.15;;
4198;SDS011;2113;50.946;14.610;2022-08-25T03:31:40;38.30;;;21.20;;
4198;SDS011;2113;50.946;14.610;2022-08-25T03:34:12;27.30;;;19.58;;
4198;SDS011;2113;50.946;14.610;2022-08-25T03:36:48;35.47;;;23.70;;
4198;SDS011;2113;50.946;14.610;2022-08-25T03:39:19;37.28;;;24.67;;
4198;SDS011;2113;50.946;14.610;2022-08-25T03:41:48;38.22;;;24.63;;
4198;SDS011;2113;50.946;14.610;2022-08-25T03:44:17;33.78;;;23.45;;
4198;SDS011;2113;50.946;14.610;2022-08-25T03:46:47;40.58;;;25.77;;
4198;SDS011;2113;50.946;14.610;2022-08-25T03:49:19;34.08;;;23.80;;
4198;SDS011;2113;50.946;14.610;2022-08-25T03:51:50;32.38;;;23.83;;
4198;SDS011;2113;50.946;14.610;2022-08-25T03:54:24;36.28;;;24.60;;
4198;SDS011;2113;50.946;14.610;2022-08-25T03:56:52;32.28;;;24.65;;
4198;SDS011;2113;50.946;14.610;2022-08-25T03:59:20;34.28;;;23.45;;
4198;SDS011;2113;50.946;14.610;2022-08-25T04:01:49;34.33;;;22.35;;
4198;SDS011;2113;50.946;14.610;2022-08-25T04:04:22;32.20;;;22.73;;
4198;SDS011;2113;50.946;14.610;2022-08-25T04:06:53;36.55;;;23.73;;
4198;SDS011;2113;50.946;14.610;2022-08-25T04:09:21;30.92;;;21.08;;
4198;SDS011;2113;50.946;14.610;2022-08-25T04:11:49;34.38;;;22.42;;
4198;SDS011;2113;50.946;14.610;2022-08-25T04:14:21;32.70;;;22.65;;
4198;SDS011;2113;50.946;14.610;2022-08-25T04:16:49;36.58;;;23.30;;
4198;SDS011;2113;50.946;14.610;2022-08-25T04:19:18;40.75;;;24.10;;
4198;SDS011;2113;50.946;14.610;2022-08-25T04:21:51;32.03;;;22.58;;
4198;SDS011;2113;50.946;14.610;2022-08-25T04:24:23;32.67;;;23.23;;
4198;SDS011;2113;50.946;14.610;2022-08-25T04:26:55;33.35;;;23.05;;
4198;SDS011;2113;50.946;14.610;2022-08-25T04:29:23;29.60;;;21.00;;
4198;SDS011;2113;50.946;14.610;2022-08-25T04:32:00;33.38;;;22.25;;
4198;SDS011;2113;50.946;14.610;2022-08-25T04:34:29;32.00;;;22.02;;
4198;SDS011;2113;50.946;14.610;2022-08-25T04:36:59;32.25;;;23.17;;
4198;SDS011;2113;50.946;14.610;2022-08-25T04:39:28;40.85;;;26.45;;
4198;SDS011;2113;50.946;14.610;2022-08-25T04:41:56;34.65;;;22.48;;
4198;SDS011;2113;50.946;14.610;2022-08-25T04:44:26;37.25;;;24.45;;
4198;SDS011;2113;50.946;14.610;2022-08-25T04:46:55;34.35;;;24.75;;
4198;SDS011;2113;50.946;14.610;2022-08-25T04:49:23;32.22;;;23.00;;
4198;SDS011;2113;50.946;14.610;2022-08-25T04:51:52;36.42;;;23.27;;
4198;SDS011;2113;50.946;14.610;2022-08-25T04:54:23;32.28;;;22.27;;
4198;SDS011;2113;50.946;14.610;2022-08-25T04:56:51;32.92;;;22.95;;
4198;SDS011;2113;50.946;14.610;2022-08-25T04:59:26;29.70;;;22.42;;
4198;SDS011;2113;50.946;14.610;2022-08-25T05:01:56;33.47;;;21.98;;
4198;SDS011;2113;50.946;14.610;2022-08-25T05:04:29;38.50;;;22.42;;
4198;SDS011;2113;50.946;14.610;2022-08-25T05:06:59;48.83;;;29.00;;
4198;SDS011;2113;50.946;14.610;2022-08-25T05:09:29;51.13;;;26.08;;
4198;SDS011;2113;50.946;14.610;2022-08-25T05:11:58;43.60;;;27.63;;
4198;SDS011;2113;50.946;14.610;2022-08-25T05:14:28;40.85;;;24.60;;
4198;SDS011;2113;50.946;14.610;2022-08-25T05:16:57;45.70;;;26.10;;
4198;SDS011;2113;50.946;14.610;2022-08-25T05:19:26;42.05;;;28.10;;
4198;SDS011;2113;50.946;14.610;2022-08-25T05:21:54;41.50;;;26.70;;
4198;SDS011;2113;50.946;14.610;2022-08-25T05:24:23;39.00;;;26.52;;
4198;SDS011;2113;50.946;14.610;2022-08-25T05:26:53;42.10;;;27.40;;
4198;SDS011;2113;50.946;14.610;2022-08-25T05:29:21;43.70;;;27.42;;
4198;SDS011;2113;50.946;14.610;2022-08-25T05:31:50;39.10;;;26.45;;
4198;SDS011;2113;50.946;14.610;2022-08-25T05:34:19;38.30;;;25.70;;
4198;SDS011;2113;50.946;14.610;2022-08-25T05:36:47;33.88;;;25.35;;
4198;SDS011;2113;50.946;14.610;2022-08-25T05:39:16;35.05;;;25.58;;
4198;SDS011;2113;50.946;14.610;2022-08-25T05:41:44;36.22;;;25.92;;
4198;SDS011;2113;50.946;14.610;2022-08-25T05:44:13;30.77;;;24.73;;
4198;SDS011;2113;50.946;14.610;2022-08-25T05:46:46;29.25;;;21.25;;
4198;SDS011;2113;50.946;14.610;2022-08-25T05:49:17;33.00;;;25.13;;
4198;SDS011;2113;50.946;14.610;2022-08-25T05:51:45;26.58;;;20.92;;
4198;SDS011;2113;50.946;14.610;2022-08-25T05:54:13;32.45;;;24.17;;
4198;SDS011;2113;50.946;14.610;2022-08-25T05:56:41;31.25;;;24.50;;
4198;SDS011;2113;50.946;14.610;2022-08-25T05:59:13;27.23;;;22.15;;
4198;SDS011;2113;50.946;14.610;2022-08-25T06:01:41;32.05;;;22.20;;
4198;SDS011;2113;50.946;14.610;2022-08-25T06:04:27;31.83;;;23.88;;
4198;SDS011;2113;50.946;14.610;2022-08-25T06:06:54;34.05;;;24.48;;
4198;SDS011;2113;50.946;14.610;2022-08-25T06:09:22;39.03;;;27.52;;
4198;SDS011;2113;50.946;14.610;2022-08-25T06:11:50;37.50;;;28.17;;
4198;SDS011;2113;50.946;14.610;2022-08-25T06:14:22;41.65;;;30.92;;
4198;SDS011;2113;50.946;14.610;2022-08-25T06:16:51;43.90;;;29.92;;
4198;SDS011;2113;50.946;14.610;2022-08-25T06:19:19;39.25;;;30.25;;
4198;SDS011;2113;50.946;14.610;2022-08-25T06:21:51;40.05;;;30.67;;
4198;SDS011;2113;50.946;14.610;2022-08-25T06:24:20;34.17;;;26.50;;
4198;SDS011;2113;50.946;14.610;2022-08-25T06:26:47;39.92;;;29.75;;
4198;SDS011;2113;50.946;14.610;2022-08-25T06:29:16;38.88;;;30.52;;
4198;SDS011;2113;50.946;14.610;2022-08-25T06:31:46;45.47;;;30.90;;
4198;SDS011;2113;50.946;14.610;2022-08-25T06:34:16;37.08;;;29.70;;
4198;SDS011;2113;50.946;14.610;2022-08-25T06:36:44;35.05;;;28.67;;
4198;SDS011;2113;50.946;14.610;2022-08-25T06:39:14;37.67;;;30.33;;
4198;SDS011;2113;50.946;14.610;2022-08-25T06:41:43;42.65;;;27.80;;
4198;SDS011;2113;50.946;14.610;2022-08-25T06:44:11;40.70;;;28.88;;
4198;SDS011;2113;50.946;14.610;2022-08-25T06:46:38;37.10;;;29.33;;
4198;SDS011;2113;50.946;14.610;2022-08-25T06:49:08;34.53;;;28.67;;
4198;SDS011;2113;50.946;14.610;2022-08-25T06:51:36;46.83;;;32.65;;
4198;SDS011;2113;50.946;14.610;2022-08-25T06:54:05;35.35;;;29.10;;
4198;SDS011;2113;50.946;14.610;2022-08-25T06:56:35;38.67;;;30.65;;
4198;SDS011;2113;50.946;14.610;2022-08-25T06:59:04;40.63;;;31.60;;
4198;SDS011;2113;50.946;14.610;2022-08-25T07:01:35;45.80;;;29.63;;
4198;SDS011;2113;50.946;14.610;2022-08-25T07:04:03;42.83;;;29.08;;
4198;SDS011;2113;50.946;14.610;2022-08-25T07:06:40;25.33;;;21.00;;
4198;SDS011;2113;50.946;14.610;2022-08-25T07:09:08;32.58;;;25.40;;
4198;SDS011;2113;50.946;14.610;2022-08-25T07:11:37;29.25;;;20.08;;
4198;SDS011;2113;50.946;14.610;2022-08-25T07:14:07;26.30;;;19.43;;
4198;SDS011;2113;50.946;14.610;2022-08-25T07:16:37;25.13;;;19.40;;
4198;SDS011;2113;50.946;14.610;2022-08-25T07:19:06;23.33;;;20.60;;
4198;SDS011;2113;50.946;14.610;2022-08-25T07:21:42;29.03;;;21.07;;
4198;SDS011;2113;50.946;14.610;2022-08-25T07:24:12;27.57;;;21.73;;
4198;SDS011;2113;50.946;14.610;2022-08-25T07:26:40;29.10;;;20.70;;
4198;SDS011;2113;50.946;14.610;2022-08-25T07:29:10;23.80;;;19.03;;
4198;SDS011;2113;50.946;14.610;2022-08-25T07:31:44;23.90;;;18.40;;
4198;SDS011;2113;50.946;14.610;2022-08-25T07:34:13;20.27;;;17.80;;
4198;SDS011;2113;50.946;14.610;2022-08-25T07:37:01;19.90;;;16.30;;
4198;SDS011;2113;50.946;14.610;2022-08-25T07:39:30;21.27;;;17.00;;
4198;SDS011;2113;50.946;14.610;2022-08-25T07:42:00;26.00;;;18.17;;
4198;SDS011;2113;50.946;14.610;2022-08-25T07:44:28;28.90;;;18.70;;
4198;SDS011;2113;50.946;14.610;2022-08-25T07:46:56;21.60;;;15.23;;
4198;SDS011;2113;50.946;14.610;2022-08-25T07:49:25;27.67;;;16.70;;
4198;SDS011;2113;50.946;14.610;2022-08-25T07:52:06;21.10;;;15.53;;
4198;SDS011;2113;50.946;14.610;2022-08-25T07:54:35;20.63;;;17.33;;
4198;SDS011;2113;50.946;14.610;2022-08-25T07:57:04;20.70;;;16.87;;
4198;SDS011;2113;50.946;14.610;2022-08-25T07:59:34;19.70;;;16.93;;
4198;SDS011;2113;50.946;14.610;2022-08-25T08:02:06;24.80;;;18.13;;
4198;SDS011;2113;50.946;14.610;2022-08-25T08:04:44;21.80;;;18.70;;
4198;SDS011;2113;50.946;14.610;2022-08-25T08:07:17;26.10;;;16.97;;
4198;SDS011;2113;50.946;14.610;2022-08-25T08:09:48;20.97;;;17.23;;
4198;SDS011;2113;50.946;14.610;2022-08-25T08:12:37;26.70;;;20.17;;
4198;SDS011;2113;50.946;14.610;2022-08-25T08:15:05;19.53;;;17.43;;
4198;SDS011;2113;50.946;14.610;2022-08-25T08:17:36;22.80;;;17.03;;
4198;SDS011;2113;50.946;14.610;2022-08-25T08:20:04;26.43;;;18.33;;
4198;SDS011;2113;50.946;14.610;2022-08-25T08:22:36;22.40;;;18.40;;
4198;SDS011;2113;50.946;14.610;2022-08-25T08:25:06;24.00;;;16.93;;
4198;SDS011;2113;50.946;14.610;2022-08-25T08:27:41;20.60;;;13.93;;
4198;SDS011;2113;50.946;14.610;2022-08-25T08:30:11;15.23;;;13.63;;
4198;SDS011;2113;50.946;14.610;2022-08-25T08:32:41;25.43;;;15.13;;
4198;SDS011;2113;50.946;14.610;2022-08-25T08:35:30;17.50;;;13.93;;
4198;SDS011;2113;50.946;14.610;2022-08-25T08:38:00;16.93;;;12.47;;
4198;SDS011;2113;50.946;14.610;2022-08-25T08:40:28;22.27;;;12.63;;
4198;SDS011;2113;50.946;14.610;2022-08-25T08:43:01;16.77;;;12.50;;
4198;SDS011;2113;50.946;14.610;2022-08-25T08:45:44;16.10;;;12.00;;
4198;SDS011;2113;50.946;14.610;2022-08-25T08:48:22;15.80;;;12.43;;
4198;SDS011;2113;50.946;14.610;2022-08-25T08:51:05;22.50;;;13.63;;
4198;SDS011;2113;50.946;14.610;2022-08-25T08:53:44;16.90;;;13.00;;
4198;SDS011;2113;50.946;14.610;2022-08-25T08:56:18;18.83;;;12.07;;
4198;SDS011;2113;50.946;14.610;2022-08-25T08:58:57;18.70;;;14.60;;
4198;SDS011;2113;50.946;14.610;2022-08-25T09:01:32;31.47;;;13.80;;
4198;SDS011;2113;50.946;14.610;2022-08-25T09:04:04;24.27;;;13.13;;
4198;SDS011;2113;50.946;14.610;2022-08-25T09:06:36;15.83;;;10.53;;
4198;SDS011;2113;50.946;14.610;2022-08-25T09:09:11;16.63;;;12.17;;
4198;SDS011;2113;50.946;14.610;2022-08-25T09:11:49;18.80;;;11.80;;
4198;SDS011;2113;50.946;14.610;2022-08-25T09:14:28;20.47;;;13.50;;
4198;SDS011;2113;50.946;14.610;2022-08-25T09:17:07;20.27;;;11.27;;
4198;SDS011;2113;50.946;14.610;2022-08-25T09:19:45;21.47;;;11.23;;
4198;SDS011;2113;50.946;14.610;2022-08-25T09:22:34;24.30;;;12.00;;
4198;SDS011;2113;50.946;14.610;2022-08-25T09:25:14;27.70;;;11.77;;
4198;SDS011;2113;50.946;14.610;2022-08-25T09:28:12;22.80;;;13.13;;
4198;SDS011;2113;50.946;14.610;2022-08-25T09:30:49;19.90;;;10.77;;
4198;SDS011;2113;50.946;14.610;2022-08-25T09:33:22;18.40;;;10.30;;
4198;SDS011;2113;50.946;14.610;2022-08-25T09:35:54;26.17;;;12.00;;
4198;SDS011;2113;50.946;14.610;2022-08-25T09:38:23;28.37;;;12.43;;
4198;SDS011;2113;50.946;14.610;2022-08-25T09:40:55;21.48;;;12.38;;
4198;SDS011;2113;50.946;14.610;2022-08-25T09:43:30;25.97;;;12.30;;
4198;SDS011;2113;50.946;14.610;2022-08-25T09:46:01;26.23;;;12.68;;
4198;SDS011;2113;50.946;14.610;2022-08-25T09:48:44;33.90;;;13.13;;
4198;SDS011;2113;50.946;14.610;2022-08-25T09:51:23;14.03;;;10.70;;
4198;SDS011;2113;50.946;14.610;2022-08-25T09:53:53;17.40;;;11.10;;
4198;SDS011;2113;50.946;14.610;2022-08-25T09:56:25;21.33;;;10.83;;
4198;SDS011;2113;50.946;14.610;2022-08-25T09:59:17;17.77;;;10.80;;
4198;SDS011;2113;50.946;14.610;2022-08-25T10:02:01;24.87;;;9.87;;
4198;SDS011;2113;50.946;14.610;2022-08-25T10:04:41;23.10;;;11.53;;
4198;SDS011;2113;50.946;14.610;2022-08-25T10:07:18;15.93;;;9.10;;
4198;SDS011;2113;50.946;14.610;2022-08-25T10:09:50;17.87;;;10.50;;
4198;SDS011;2113;50.946;14.610;2022-08-25T10:12:24;20.87;;;9.90;;
4198;SDS011;2113;50.946;14.610;2022-08-25T10:14:57;18.37;;;9.87;;
4198;SDS011;2113;50.946;14.610;2022-08-25T10:17:26;21.73;;;10.20;;
4198;SDS011;2113;50.946;14.610;2022-08-25T10:20:12;22.20;;;10.53;;
4198;SDS011;2113;50.946;14.610;2022-08-25T10:22:47;20.10;;;11.60;;
4198;SDS011;2113;50.946;14.610;2022-08-25T10:25:19;20.00;;;11.13;;
4198;SDS011;2113;50.946;14.610;2022-08-25T10:27:57;20.83;;;12.10;;
4198;SDS011;2113;50.946;14.610;2022-08-25T10:30:39;23.00;;;11.70;;
4198;SDS011;2113;50.946;14.610;2022-08-25T10:33:19;23.80;;;12.63;;
4198;SDS011;2113;50.946;14.610;2022-08-25T10:36:00;17.20;;;10.07;;
4198;SDS011;2113;50.946;14.610;2022-08-25T10:38:35;20.83;;;10.67;;
4198;SDS011;2113;50.946;14.610;2022-08-25T10:41:12;19.43;;;10.83;;
4198;SDS011;2113;50.946;14.610;2022-08-25T10:43:55;18.30;;;12.20;;
4198;SDS011;2113;50.946;14.610;2022-08-25T10:46:30;26.83;;;11.47;;
4198;SDS011;2113;50.946;14.610;2022-08-25T10:49:05;23.80;;;10.10;;
4198;SDS011;2113;50.946;14.610;2022-08-25T10:51:43;22.87;;;10.00;;
4198;SDS011;2113;50.946;14.610;2022-08-25T10:54:23;24.53;;;9.33;;
4198;SDS011;2113;50.946;14.610;2022-08-25T10:57:04;21.30;;;10.60;;
4198;SDS011;2113;50.946;14.610;2022-08-25T10:59:49;20.23;;;9.90;;
4198;SDS011;2113;50.946;14.610;2022-08-25T11:02:32;22.37;;;9.30;;
4198;SDS011;2113;50.946;14.610;2022-08-25T11:05:17;20.77;;;9.37;;
4198;SDS011;2113;50.946;14.610;2022-08-25T11:07:53;27.47;;;9.37;;
4198;SDS011;2113;50.946;14.610;2022-08-25T11:10:30;17.60;;;8.97;;
4198;SDS011;2113;50.946;14.610;2022-08-25T11:13:06;36.00;;;9.13;;
4198;SDS011;2113;50.946;14.610;2022-08-25T11:15:41;26.90;;;8.67;;
4198;SDS011;2113;50.946;14.610;2022-08-25T11:18:37;17.27;;;7.50;;
4198;SDS011;2113;50.946;14.610;2022-08-25T11:21:13;18.77;;;9.13;;
4198;SDS011;2113;50.946;14.610;2022-08-25T11:23:49;20.90;;;9.03;;
4198;SDS011;2113;50.946;14.610;2022-08-25T11:26:23;20.73;;;9.67;;
4198;SDS011;2113;50.946;14.610;2022-08-25T11:29:02;24.43;;;8.63;;
4198;SDS011;2113;50.946;14.610;2022-08-25T11:31:41;16.40;;;8.73;;
4198;SDS011;2113;50.946;14.610;2022-08-25T11:34:37;24.53;;;8.67;;
4198;SDS011;2113;50.946;14.610;2022-08-25T11:37:12;17.80;;;8.23;;
4198;SDS011;2113;50.946;14.610;2022-08-25T11:39:57;23.73;;;7.87;;
4198;SDS011;2113;50.946;14.610;2022-08-25T11:42:43;18.37;;;7.00;;
4198;SDS011;2113;50.946;14.610;2022-08-25T11:45:24;20.60;;;8.10;;
4198;SDS011;2113;50.946;14.610;2022-08-25T11:48:14;25.90;;;9.13;;
4198;SDS011;2113;50.946;14.610;2022-08-25T11:50:55;28.83;;;8.90;;
4198;SDS011;2113;50.946;14.610;2022-08-25T11:53:27;17.57;;;7.67;;
4198;SDS011;2113;50.946;14.610;2022-08-25T11:55:58;27.90;;;10.07;;
4198;SDS011;2113;50.946;14.610;2022-08-25T11:58:37;29.93;;;9.67;;
4198;SDS011;2113;50.946;14.610;2022-08-25T12:04:31;30.23;;;9.27;;
4198;SDS011;2113;50.946;14.610;2022-08-25T12:13:39;24.70;;;12.03;;
4198;SDS011;2113;50.946;14.610;2022-08-25T12:16:30;24.20;;;11.33;;
4198;SDS011;2113;50.946;14.610;2022-08-25T12:19:25;22.73;;;10.30;;
4198;SDS011;2113;50.946;14.610;2022-08-25T12:21:57;25.03;;;11.63;;
4198;SDS011;2113;50.946;14.610;2022-08-25T12:24:49;31.40;;;12.07;;
4198;SDS011;2113;50.946;14.610;2022-08-25T12:27:23;26.63;;;10.97;;
4198;SDS011;2113;50.946;14.610;2022-08-25T12:30:00;19.03;;;11.17;;
4198;SDS011;2113;50.946;14.610;2022-08-25T12:35:28;26.57;;;10.23;;
4198;SDS011;2113;50.946;14.610;2022-08-25T12:37:58;47.13;;;12.33;;
4198;SDS011;2113;50.946;14.610;2022-08-25T12:40:33;29.77;;;10.73;;
4198;SDS011;2113;50.946;14.610;2022-08-25T12:43:05;24.20;;;10.13;;
4198;SDS011;2113;50.946;14.610;2022-08-25T12:45:37;29.10;;;11.50;;
4198;SDS011;2113;50.946;14.610;2022-08-25T12:51:22;28.07;;;11.10;;
4198;SDS011;2113;50.946;14.610;2022-08-25T12:53:52;27.50;;;13.40;;
4198;SDS011;2113;50.946;14.610;2022-08-25T12:56:27;22.23;;;12.20;;
4198;SDS011;2113;50.946;14.610;2022-08-25T12:59:08;30.77;;;15.37;;
4198;SDS011;2113;50.946;14.610;2022-08-25T13:01:45;24.93;;;12.17;;
4198;SDS011;2113;50.946;14.610;2022-08-25T13:04:31;25.60;;;11.40;;
4198;SDS011;2113;50.946;14.610;2022-08-25T13:07:17;26.27;;;11.70;;
4198;SDS011;2113;50.946;14.610;2022-08-25T13:10:17;28.97;;;10.73;;
4198;SDS011;2113;50.946;14.610;2022-08-25T13:12:54;28.23;;;12.07;;
4198;SDS011;2113;50.946;14.610;2022-08-25T13:15:32;27.63;;;11.50;;
4198;SDS011;2113;50.946;14.610;2022-08-25T13:18:12;20.90;;;12.43;;
4198;SDS011;2113;50.946;14.610;2022-08-25T13:20:42;18.57;;;12.93;;
4198;SDS011;2113;50.946;14.610;2022-08-25T13:23:11;18.80;;;11.87;;
4198;SDS011;2113;50.946;14.610;2022-08-25T13:25:47;16.70;;;11.83;;
4198;SDS011;2113;50.946;14.610;2022-08-25T13:28:22;21.00;;;12.10;;
4198;SDS011;2113;50.946;14.610;2022-08-25T13:30:56;20.83;;;13.23;;
4198;SDS011;2113;50.946;14.610;2022-08-25T13:33:26;18.60;;;11.23;;
4198;SDS011;2113;50.946;14.610;2022-08-25T13:35:56;20.00;;;12.33;;
4198;SDS011;2113;50.946;14.610;2022-08-25T13:38:42;25.05;;;12.10;;
4198;SDS011;2113;50.946;14.610;2022-08-25T13:41:16;24.53;;;13.40;;
4198;SDS011;2113;50.946;14.610;2022-08-25T13:43:56;22.73;;;13.70;;
4198;SDS011;2113;50.946;14.610;2022-08-25T13:46:27;27.87;;;14.53;;
4198;SDS011;2113;50.946;14.610;2022-08-25T13:49:00;28.07;;;12.57;;
4198;SDS011;2113;50.946;14.610;2022-08-25T13:51:31;28.17;;;13.73;;
4198;SDS011;2113;50.946;14.610;2022-08-25T13:54:00;26.87;;;13.40;;
4198;SDS011;2113;50.946;14.610;2022-08-25T13:56:31;24.07;;;11.80;;
4198;SDS011;2113;50.946;14.610;2022-08-25T13:59:17;20.23;;;11.17;;
4198;SDS011;2113;50.946;14.610;2022-08-25T14:01:49;25.90;;;13.80;;
4198;SDS011;2113;50.946;14.610;2022-08-25T14:04:22;21.63;;;13.07;;
4198;SDS011;2113;50.946;14.610;2022-08-25T14:07:13;23.60;;;13.90;;
4198;SDS011;2113;50.946;14.610;2022-08-25T14:09:53;22.23;;;14.63;;
4198;SDS011;2113;50.946;14.610;2022-08-25T14:12:30;23.57;;;14.47;;
4198;SDS011;2113;50.946;14.610;2022-08-25T14:15:04;25.13;;;14.07;;
4198;SDS011;2113;50.946;14.610;2022-08-25T14:17:35;24.47;;;13.37;;
4198;SDS011;2113;50.946;14.610;2022-08-25T14:20:14;32.27;;;13.37;;
4198;SDS011;2113;50.946;14.610;2022-08-25T14:22:44;19.53;;;13.40;;
4198;SDS011;2113;50.946;14.610;2022-08-25T14:25:12;26.93;;;14.20;;
4198;SDS011;2113;50.946;14.610;2022-08-25T14:27:41;28.83;;;13.83;;
4198;SDS011;2113;50.946;14.610;2022-08-25T14:30:32;20.30;;;13.57;;
4198;SDS011;2113;50.946;14.610;2022-08-25T14:33:02;30.67;;;14.30;;
4198;SDS011;2113;50.946;14.610;2022-08-25T14:35:32;28.77;;;16.23;;
4198;SDS011;2113;50.946;14.610;2022-08-25T14:38:01;24.70;;;16.57;;
4198;SDS011;2113;50.946;14.610;2022-08-25T14:40:34;28.63;;;16.00;;
4198;SDS011;2113;50.946;14.610;2022-08-25T14:43:02;28.50;;;16.50;;
4198;SDS011;2113;50.946;14.610;2022-08-25T14:45:37;27.60;;;17.03;;
4198;SDS011;2113;50.946;14.610;2022-08-25T14:48:08;31.65;;;19.75;;
4198;SDS011;2113;50.946;14.610;2022-08-25T14:50:40;19.80;;;16.60;;
4198;SDS011;2113;50.946;14.610;2022-08-25T14:53:09;24.33;;;16.53;;
4198;SDS011;2113;50.946;14.610;2022-08-25T14:55:37;29.95;;;17.70;;
4198;SDS011;2113;50.946;14.610;2022-08-25T14:58:06;26.80;;;16.20;;
4198;SDS011;2113;50.946;14.610;2022-08-25T15:00:39;22.53;;;17.77;;
4198;SDS011;2113;50.946;14.610;2022-08-25T15:03:13;27.10;;;17.90;;
4198;SDS011;2113;50.946;14.610;2022-08-25T15:05:46;28.60;;;17.70;;
4198;SDS011;2113;50.946;14.610;2022-08-25T15:08:15;29.90;;;19.23;;
4198;SDS011;2113;50.946;14.610;2022-08-25T15:11:01;33.93;;;17.13;;
4198;SDS011;2113;50.946;14.610;2022-08-25T15:13:34;28.57;;;17.57;;
4198;SDS011;2113;50.946;14.610;2022-08-25T15:16:03;23.23;;;17.57;;
4198;SDS011;2113;50.946;14.610;2022-08-25T15:18:32;27.33;;;19.23;;
4198;SDS011;2113;50.946;14.610;2022-08-25T15:21:01;34.37;;;18.60;;
4198;SDS011;2113;50.946;14.610;2022-08-25T15:23:29;26.03;;;17.37;;
4198;SDS011;2113;50.946;14.610;2022-08-25T15:26:00;30.80;;;17.67;;